createdAt,value
2017-11-14T00:01:25.214Z,75.09
2017-11-14T00:03:51.629Z,75.84
2017-11-14T00:06:18.072Z,76.66
2017-11-14T00:08:44.489Z,77.00
2017-11-14T00:11:10.933Z,77.07
2017-11-14T00:13:37.374Z,77.80
2017-11-14T00:16:03.945Z,78.06
2017-11-14T00:18:30.557Z,77.67
2017-11-14T00:20:56.998Z,77.90
2017-11-14T00:23:23.418Z,79.16
2017-11-14T00:25:50.058Z,78.47
2017-11-14T00:28:16.476Z,78.52
2017-11-14T00:30:42.918Z,78.05
2017-11-14T00:33:09.383Z,78.35
2017-11-14T00:35:35.882Z,78.35
2017-11-14T00:38:02.456Z,78.67
2017-11-14T00:40:28.963Z,78.46
2017-11-14T00:42:55.527Z,76.90
2017-11-14T00:45:22.143Z,75.62
2017-11-14T00:47:48.805Z,74.61
2017-11-14T00:50:15.444Z,73.86
2017-11-14T00:52:41.885Z,74.36
2017-11-14T00:55:08.587Z,74.11
2017-11-14T00:57:35.162Z,74.80
2017-11-14T01:00:01.798Z,74.58
2017-11-14T01:02:28.411Z,75.24
2017-11-14T01:04:54.662Z,78.05
2017-11-14T01:07:21.297Z,77.93
2017-11-14T01:09:47.818Z,78.91
2017-11-14T01:12:14.331Z,79.40
2017-11-14T01:14:40.750Z,80.11
2017-11-14T01:17:07.444Z,80.45
2017-11-14T01:19:33.932Z,80.18
2017-11-14T01:22:00.374Z,80.65
2017-11-14T01:24:26.792Z,80.44
2017-11-14T01:26:53.233Z,79.86
2017-11-14T01:29:19.675Z,79.82
2017-11-14T01:31:46.092Z,80.12
2017-11-14T01:34:12.677Z,79.60
2017-11-14T01:36:39.178Z,79.32
2017-11-14T01:39:05.722Z,79.33
2017-11-14T01:41:32.134Z,78.79
2017-11-14T01:43:58.577Z,78.62
2017-11-14T01:46:25.241Z,78.78
2017-11-14T01:48:51.889Z,78.57
2017-11-14T01:51:18.503Z,78.47
2017-11-14T01:53:45.169Z,78.45
2017-11-14T01:56:11.788Z,78.05
2017-11-14T01:58:38.203Z,78.03
2017-11-14T02:01:04.870Z,78.47
2017-11-14T02:03:31.321Z,79.14
2017-11-14T02:05:57.931Z,79.44
2017-11-14T02:08:24.995Z,79.66
2017-11-14T02:10:51.649Z,79.27
2017-11-14T02:13:18.171Z,79.26
2017-11-14T02:15:44.672Z,77.33
2017-11-14T02:18:11.090Z,76.79
2017-11-14T02:20:37.556Z,76.65
2017-11-14T02:23:04.213Z,76.26
2017-11-14T02:25:30.840Z,74.64
2017-11-14T02:27:57.233Z,73.48
2017-11-14T02:30:23.699Z,72.77
2017-11-14T02:32:50.358Z,72.45
2017-11-14T02:35:16.860Z,72.18
2017-11-14T02:37:43.275Z,72.64
2017-11-14T02:40:09.716Z,73.03
2017-11-14T02:42:36.295Z,73.40
2017-11-14T02:45:02.625Z,73.63
2017-11-14T02:47:29.117Z,73.62
2017-11-14T02:49:55.562Z,73.45
2017-11-14T02:52:22.234Z,72.92
2017-11-14T02:54:48.872Z,73.08
2017-11-14T02:57:15.489Z,72.82
2017-11-14T02:59:42.149Z,72.88
2017-11-14T03:02:08.670Z,72.54
2017-11-14T03:04:35.027Z,71.64
2017-11-14T03:07:01.635Z,71.22
2017-11-14T03:09:28.047Z,70.99
2017-11-14T03:11:54.489Z,70.72
2017-11-14T03:14:21.031Z,70.83
2017-11-14T03:16:47.448Z,70.79
2017-11-14T03:19:13.889Z,70.74
2017-11-14T03:21:40.408Z,70.42
2017-11-14T03:24:06.849Z,70.27
2017-11-14T03:26:33.290Z,69.99
2017-11-14T03:28:59.970Z,69.63
2017-11-14T03:31:26.804Z,69.42
2017-11-14T03:33:53.450Z,69.42
2017-11-14T03:36:19.760Z,69.25
2017-11-14T03:38:46.315Z,69.21
2017-11-14T03:41:12.950Z,69.48
2017-11-14T03:43:39.591Z,69.47
2017-11-14T03:46:06.054Z,69.58
2017-11-14T03:48:32.662Z,69.68
2017-11-14T03:50:59.283Z,69.83
2017-11-14T03:53:25.937Z,71.06
2017-11-14T03:55:52.543Z,70.93
2017-11-14T03:58:19.066Z,70.72
2017-11-14T04:00:45.504Z,71.94
2017-11-14T04:03:12.068Z,71.43
2017-11-14T04:05:38.563Z,71.95
2017-11-14T04:08:05.354Z,72.70
2017-11-14T04:10:31.786Z,73.59
2017-11-14T04:12:58.412Z,73.70
2017-11-14T04:15:24.829Z,74.21
2017-11-14T04:17:51.276Z,74.87
2017-11-14T04:20:17.938Z,74.10
2017-11-14T04:22:44.561Z,74.92
2017-11-14T04:25:11.198Z,74.64
2017-11-14T04:27:37.717Z,73.79
2017-11-14T04:30:04.159Z,72.92
2017-11-14T04:32:30.673Z,70.93
2017-11-14T04:34:57.352Z,69.84
2017-11-14T04:37:23.994Z,69.23
2017-11-14T04:39:50.444Z,68.92
2017-11-14T04:42:16.918Z,68.41
2017-11-14T04:44:43.359Z,68.04
2017-11-14T04:47:09.891Z,67.79
2017-11-14T04:49:36.570Z,67.43
2017-11-14T04:52:03.208Z,67.42
2017-11-14T04:54:29.701Z,67.18
2017-11-14T04:56:56.246Z,66.77
2017-11-14T04:59:22.686Z,66.87
2017-11-14T05:01:49.102Z,66.81
2017-11-14T05:04:15.784Z,66.62
2017-11-14T05:06:42.288Z,67.12
2017-11-14T05:09:08.855Z,66.79
2017-11-14T05:11:35.472Z,66.97
2017-11-14T05:14:01.890Z,66.57
2017-11-14T05:16:28.311Z,66.62
2017-11-14T05:18:54.995Z,66.34
2017-11-14T05:21:21.636Z,66.00
2017-11-14T05:23:48.132Z,65.84
2017-11-14T05:26:14.575Z,65.50
2017-11-14T05:28:41.144Z,65.60
2017-11-14T05:31:07.638Z,65.59
2017-11-14T05:33:34.176Z,65.41
2017-11-14T05:36:00.490Z,65.28
2017-11-14T05:38:26.934Z,64.96
2017-11-14T05:40:53.375Z,64.73
2017-11-14T05:43:19.953Z,64.73
2017-11-14T05:45:46.559Z,64.60
2017-11-14T05:48:13.050Z,64.16
2017-11-14T05:50:39.643Z,64.38
2017-11-14T05:55:45.036Z,63.41
2017-11-14T05:58:11.455Z,63.39
2017-11-14T06:00:38.083Z,63.10
2017-11-14T06:03:04.724Z,63.06
2017-11-14T06:05:31.208Z,63.09
2017-11-14T06:07:57.650Z,62.73
2017-11-14T06:10:24.231Z,62.82
2017-11-14T06:12:50.833Z,62.61
2017-11-14T06:15:17.497Z,63.34
2017-11-14T06:17:43.918Z,63.48
2017-11-14T06:20:10.360Z,63.98
2017-11-14T06:22:36.998Z,64.15
2017-11-14T06:25:03.394Z,65.09
2017-11-14T06:27:29.734Z,65.24
2017-11-14T06:29:56.181Z,65.40
2017-11-14T06:32:22.594Z,65.27
2017-11-14T06:34:49.040Z,64.65
2017-11-14T06:37:15.441Z,63.91
2017-11-14T06:39:41.895Z,63.60
2017-11-14T06:42:08.483Z,63.88
2017-11-14T06:44:35.431Z,64.49
2017-11-14T06:47:01.947Z,63.92
2017-11-14T06:49:28.605Z,63.76
2017-11-14T06:51:55.114Z,63.74
2017-11-14T06:54:21.524Z,62.73
2017-11-14T06:56:48.105Z,61.69
2017-11-14T06:59:14.731Z,60.81
2017-11-14T07:01:41.372Z,57.43
2017-11-14T07:04:08.027Z,53.23
2017-11-14T07:06:34.658Z,50.25
2017-11-14T07:09:01.094Z,48.30
2017-11-14T07:11:27.715Z,48.91
2017-11-14T07:13:54.369Z,49.38
2017-11-14T07:16:20.853Z,50.63
2017-11-14T07:18:47.239Z,52.32
2017-11-14T07:21:13.879Z,52.19
2017-11-14T07:23:40.523Z,52.39
2017-11-14T07:26:06.997Z,52.50
2017-11-14T07:28:33.541Z,54.37
2017-11-14T07:30:59.989Z,55.56
2017-11-14T07:33:26.646Z,56.34
2017-11-14T07:35:53.141Z,56.23
2017-11-14T07:38:19.566Z,56.59
2017-11-14T07:40:46.149Z,55.80
2017-11-14T07:43:12.790Z,55.89
2017-11-14T07:45:39.307Z,55.93
2017-11-14T07:48:05.563Z,56.07
2017-11-14T07:50:32.104Z,56.23
2017-11-14T07:52:58.585Z,56.23
2017-11-14T07:55:25.168Z,55.79
2017-11-14T07:57:51.811Z,55.79
2017-11-14T08:00:18.261Z,54.99
2017-11-14T08:02:44.828Z,55.06
2017-11-14T08:05:11.518Z,55.54
2017-11-14T08:07:38.137Z,54.00
2017-11-14T08:10:04.554Z,52.69
2017-11-14T08:12:31.197Z,52.12
2017-11-14T08:14:57.636Z,52.02
2017-11-14T08:17:24.057Z,51.79
2017-11-14T08:19:50.473Z,51.29
2017-11-14T08:22:16.916Z,49.70
2017-11-14T08:24:43.369Z,48.51
2017-11-14T08:27:10.033Z,48.10
2017-11-14T08:29:36.468Z,45.62
2017-11-14T08:32:03.105Z,44.73
2017-11-14T08:34:29.726Z,45.09
2017-11-14T08:36:56.341Z,41.16
2017-11-14T08:39:22.811Z,40.61
2017-11-14T08:41:49.250Z,42.10
2017-11-14T08:44:15.474Z,43.13
2017-11-14T08:46:42.115Z,43.81
2017-11-14T08:49:08.729Z,43.39
2017-11-14T08:51:35.147Z,42.25
2017-11-14T08:54:01.488Z,39.25
2017-11-14T08:56:27.907Z,38.37
2017-11-14T08:58:54.285Z,36.68
2017-11-14T09:01:20.920Z,38.20
2017-11-14T09:03:47.364Z,39.04
2017-11-14T09:06:13.994Z,36.93
2017-11-14T09:08:40.613Z,36.50
2017-11-14T09:11:07.269Z,36.94
2017-11-14T09:13:33.900Z,37.50
2017-11-14T09:16:00.343Z,37.63
2017-11-14T09:18:26.986Z,39.26
2017-11-14T09:20:53.600Z,40.20
2017-11-14T09:23:19.996Z,40.61
2017-11-14T09:25:46.688Z,40.82
2017-11-14T09:28:13.503Z,40.87
2017-11-14T09:30:39.947Z,41.59
2017-11-14T09:33:06.463Z,42.10
2017-11-14T09:35:32.908Z,42.32
2017-11-14T09:37:59.423Z,43.35
2017-11-14T09:40:26.145Z,44.12
2017-11-14T09:42:52.609Z,44.72
2017-11-14T09:45:18.976Z,45.02
2017-11-14T09:47:45.623Z,46.24
2017-11-14T09:50:12.253Z,45.13
2017-11-14T09:52:38.874Z,46.55
2017-11-14T09:55:05.393Z,46.56
2017-11-14T09:57:31.768Z,47.64
2017-11-14T09:59:58.190Z,49.33
2017-11-14T10:02:24.817Z,50.42
2017-11-14T10:04:51.212Z,49.92
2017-11-14T10:07:17.654Z,51.33
2017-11-14T10:09:44.335Z,51.24
2017-11-14T10:12:10.840Z,52.17
2017-11-14T10:14:37.355Z,51.52
2017-11-14T10:17:03.773Z,52.06
2017-11-14T10:19:30.140Z,51.61
2017-11-14T10:21:56.707Z,51.36
2017-11-14T10:24:23.323Z,53.02
2017-11-14T10:26:49.741Z,52.70
2017-11-14T10:29:16.162Z,51.81
2017-11-14T10:31:42.850Z,52.01
2017-11-14T10:34:09.288Z,53.34
2017-11-14T10:36:35.907Z,54.61
2017-11-14T10:39:02.426Z,54.49
2017-11-14T10:41:28.844Z,55.26
2017-11-14T10:43:55.408Z,56.13
2017-11-14T10:46:22.067Z,57.47
2017-11-14T10:48:48.670Z,59.25
2017-11-14T10:51:15.086Z,60.06
2017-11-14T10:53:41.754Z,59.73
2017-11-14T10:56:08.174Z,61.49
2017-11-14T10:58:34.588Z,61.66
2017-11-14T11:01:01.278Z,62.77
2017-11-14T11:03:27.715Z,63.49
2017-11-14T11:05:54.338Z,62.49
2017-11-14T11:08:20.857Z,60.56
2017-11-14T11:10:47.424Z,59.10
2017-11-14T11:13:13.940Z,55.36
2017-11-14T11:15:40.358Z,52.37
2017-11-14T11:18:06.799Z,50.84
2017-11-14T11:20:33.164Z,48.93
2017-11-14T11:22:59.590Z,49.10
2017-11-14T11:25:26.100Z,50.15
2017-11-14T11:27:52.518Z,49.68
2017-11-14T11:30:19.060Z,48.38
2017-11-14T11:32:45.736Z,46.36
2017-11-14T11:35:12.343Z,50.65
2017-11-14T11:37:39.010Z,52.28
2017-11-14T11:40:05.675Z,55.67
2017-11-14T11:42:32.286Z,57.61
2017-11-14T11:44:58.933Z,59.65
2017-11-14T11:47:25.557Z,61.90
2017-11-14T11:49:51.995Z,63.15
2017-11-14T11:52:18.484Z,63.70
2017-11-14T11:54:44.929Z,64.01
2017-11-14T11:57:11.380Z,64.67
2017-11-14T11:59:37.889Z,64.67
2017-11-14T12:02:04.333Z,65.39
2017-11-14T12:04:30.769Z,65.97
2017-11-14T12:06:57.222Z,66.13
2017-11-14T12:09:23.565Z,66.32
2017-11-14T12:11:49.789Z,67.52
2017-11-14T12:14:16.416Z,67.97
2017-11-14T12:16:42.858Z,67.37
2017-11-14T12:19:09.252Z,67.35
2017-11-14T12:21:35.931Z,67.43
2017-11-14T12:24:02.573Z,68.18
2017-11-14T12:26:29.207Z,68.64
2017-11-14T12:28:55.854Z,68.85
2017-11-14T12:31:22.461Z,69.97
2017-11-14T12:33:48.902Z,71.00
2017-11-14T12:36:15.564Z,71.72
2017-11-14T12:38:42.005Z,71.82
2017-11-14T12:41:08.603Z,71.63
2017-11-14T12:43:35.272Z,72.00
2017-11-14T12:46:01.765Z,72.21
2017-11-14T12:48:28.346Z,72.24
2017-11-14T12:50:54.947Z,72.80
2017-11-14T12:53:21.649Z,72.78
2017-11-14T12:55:47.895Z,72.97
2017-11-14T12:58:14.471Z,73.03
2017-11-14T13:00:40.999Z,72.85
2017-11-14T13:03:07.441Z,72.38
2017-11-14T13:05:34.096Z,72.58
2017-11-14T13:08:00.374Z,72.52
2017-11-14T13:10:26.654Z,72.69
2017-11-14T13:12:53.175Z,73.46
2017-11-14T13:15:19.690Z,73.23
2017-11-14T13:17:46.107Z,73.96
2017-11-14T13:20:12.336Z,74.24
2017-11-14T13:22:38.692Z,74.10
2017-11-14T13:25:05.255Z,74.11
2017-11-14T13:27:31.699Z,74.87
2017-11-14T13:29:58.332Z,75.05
2017-11-14T13:32:24.935Z,75.08
2017-11-14T13:34:51.352Z,75.28
2017-11-14T13:37:18.037Z,75.11
2017-11-14T13:39:44.261Z,74.86
2017-11-14T13:42:10.501Z,74.73
2017-11-14T13:44:36.765Z,74.49
2017-11-14T13:47:03.024Z,74.14
2017-11-14T13:49:29.576Z,74.41
2017-11-14T13:51:56.229Z,74.29
2017-11-14T13:54:22.865Z,74.48
2017-11-14T13:56:49.305Z,74.75
2017-11-14T13:59:15.919Z,75.30
2017-11-14T14:01:42.340Z,75.91
2017-11-14T14:04:08.755Z,76.05
2017-11-14T14:06:35.034Z,76.32
2017-11-14T14:09:01.673Z,76.66
2017-11-14T14:11:28.283Z,77.18
2017-11-14T14:13:54.947Z,77.46
2017-11-14T14:16:21.568Z,77.71
2017-11-14T14:18:48.207Z,77.48
2017-11-14T14:21:14.864Z,77.44
2017-11-14T14:23:41.112Z,77.42
2017-11-14T14:26:07.609Z,77.37
2017-11-14T14:28:34.125Z,77.11
2017-11-14T14:31:00.543Z,77.09
2017-11-14T14:33:26.884Z,77.28
2017-11-14T14:35:53.325Z,77.13
2017-11-14T14:38:19.743Z,76.92
2017-11-14T14:40:45.952Z,76.91
2017-11-14T14:43:12.555Z,76.84
2017-11-14T14:45:39.193Z,77.21
2017-11-14T14:48:05.685Z,77.29
2017-11-14T14:50:32.075Z,77.66
2017-11-14T14:52:58.545Z,77.18
2017-11-14T14:55:24.987Z,77.11
2017-11-14T14:57:51.430Z,76.97
2017-11-14T15:00:17.846Z,77.49
2017-11-14T15:02:44.232Z,77.60
2017-11-14T15:05:10.696Z,77.33
2017-11-14T15:07:37.310Z,77.24
2017-11-14T15:10:03.936Z,77.35
2017-11-14T15:12:30.576Z,77.62
2017-11-14T15:14:57.218Z,77.75
2017-11-14T15:17:23.653Z,77.74
2017-11-14T15:19:50.085Z,78.30
2017-11-14T15:22:16.693Z,78.15
2017-11-14T15:24:43.140Z,77.86
2017-11-14T15:27:09.581Z,77.93
2017-11-14T15:29:36.023Z,77.98
2017-11-14T15:32:02.641Z,78.46
2017-11-14T15:34:29.299Z,78.26
2017-11-14T15:36:55.809Z,78.89
2017-11-14T15:39:22.068Z,78.63
2017-11-14T15:41:48.563Z,78.52
2017-11-14T15:44:15.010Z,78.47
2017-11-14T15:46:41.643Z,78.42
2017-11-14T15:49:08.316Z,78.28
2017-11-14T15:51:34.943Z,78.02
2017-11-14T15:54:01.348Z,78.37
2017-11-14T15:56:28.017Z,79.08
2017-11-14T15:58:54.427Z,78.98
2017-11-14T16:01:20.843Z,78.47
2017-11-14T16:03:47.525Z,78.34
2017-11-14T16:06:14.163Z,78.66
2017-11-14T16:08:40.599Z,79.23
2017-11-14T16:11:07.212Z,79.02
2017-11-14T16:13:33.654Z,78.93
2017-11-14T16:16:00.305Z,79.07
2017-11-14T16:18:26.787Z,78.98
2017-11-14T16:20:53.377Z,79.29
2017-11-14T16:23:19.997Z,79.21
2017-11-14T16:25:46.664Z,79.43
2017-11-14T16:28:13.192Z,79.84
2017-11-14T16:30:39.726Z,80.31
2017-11-14T16:33:06.340Z,80.07
2017-11-14T16:35:32.598Z,79.87
2017-11-14T16:37:59.223Z,79.47
2017-11-14T16:40:25.870Z,79.62
2017-11-14T16:42:52.483Z,79.65
2017-11-14T16:45:18.926Z,79.95
2017-11-14T16:47:45.403Z,79.95
2017-11-14T16:50:11.752Z,80.45
2017-11-14T16:52:38.241Z,80.26
2017-11-14T16:55:04.523Z,80.04
2017-11-14T16:57:31.081Z,80.77
2017-11-14T16:59:57.906Z,80.40
2017-11-14T17:02:24.198Z,80.41
2017-11-14T17:04:50.436Z,81.06
2017-11-14T17:07:16.672Z,81.53
2017-11-14T17:09:42.958Z,82.31
2017-11-14T17:12:09.198Z,82.41
2017-11-14T17:14:35.428Z,82.51
2017-11-14T17:17:01.708Z,82.58
2017-11-14T17:19:27.953Z,82.94
2017-11-14T17:21:54.213Z,82.97
2017-11-14T17:24:20.502Z,82.73
2017-11-14T17:26:46.736Z,82.96
2017-11-14T17:29:13.070Z,83.18
2017-11-14T17:31:39.367Z,83.36
2017-11-14T17:34:05.623Z,84.28
2017-11-14T17:36:31.900Z,84.67
2017-11-14T17:38:58.190Z,84.73
2017-11-14T17:41:24.446Z,84.88
2017-11-14T17:43:50.689Z,85.04
2017-11-14T17:46:17.002Z,85.17
2017-11-14T17:48:43.245Z,85.33
2017-11-14T17:51:09.504Z,85.28
2017-11-14T17:53:35.797Z,84.70
2017-11-14T17:56:02.050Z,84.86
2017-11-14T17:58:28.305Z,84.96
2017-11-14T18:00:55.688Z,85.19
2017-11-14T18:03:21.924Z,85.27
2017-11-14T18:05:48.201Z,85.44
2017-11-14T18:08:14.476Z,85.18
2017-11-14T18:10:40.765Z,85.48
2017-11-14T18:13:07.047Z,85.27
2017-11-14T18:15:33.362Z,84.95
2017-11-14T18:17:59.642Z,85.34
2017-11-14T18:20:25.909Z,85.51
2017-11-14T18:22:52.225Z,85.32
2017-11-14T18:25:18.482Z,85.13
2017-11-14T18:27:44.820Z,84.93
2017-11-14T18:30:11.106Z,85.05
2017-11-14T18:32:37.347Z,85.19
2017-11-14T18:35:03.596Z,85.33
2017-11-14T18:37:29.868Z,85.30
2017-11-14T18:39:56.102Z,85.12
2017-11-14T18:42:22.351Z,85.46
2017-11-14T18:44:48.666Z,85.88
2017-11-14T18:47:14.905Z,86.11
2017-11-14T18:49:41.143Z,85.85
2017-11-14T18:52:07.425Z,85.88
2017-11-14T18:54:33.681Z,85.89
2017-11-14T18:56:59.909Z,85.96
2017-11-14T18:59:26.187Z,86.13
2017-11-14T19:01:52.431Z,86.19
2017-11-14T19:04:18.717Z,86.40
2017-11-14T19:06:45.058Z,86.44
2017-11-14T19:09:11.320Z,86.37
2017-11-14T19:11:37.585Z,86.47
2017-11-14T19:14:03.895Z,86.67
2017-11-14T19:16:30.159Z,87.03
2017-11-14T19:18:56.420Z,87.28
2017-11-14T19:21:22.729Z,87.89
2017-11-14T19:23:48.972Z,88.31
2017-11-14T19:26:15.227Z,88.54
2017-11-14T19:28:41.542Z,89.20
2017-11-14T19:31:07.791Z,89.24
2017-11-14T19:33:34.026Z,89.09
2017-11-14T19:36:00.540Z,89.05
2017-11-14T19:38:26.805Z,88.76
2017-11-14T19:40:53.061Z,89.04
2017-11-14T19:43:19.333Z,88.91
2017-11-14T19:45:45.579Z,88.96
2017-11-14T19:48:11.800Z,89.02
2017-11-14T19:50:38.072Z,89.68
2017-11-14T19:53:04.311Z,89.45
2017-11-14T19:55:30.542Z,89.53
2017-11-14T19:57:56.843Z,90.12
2017-11-14T20:00:23.088Z,90.46
2017-11-14T20:02:49.333Z,90.66
2017-11-14T20:05:15.617Z,90.61
2017-11-14T20:07:41.863Z,90.66
2017-11-14T20:10:08.199Z,90.42
2017-11-14T20:12:34.503Z,90.64
2017-11-14T20:15:00.755Z,90.25
2017-11-14T20:17:26.991Z,90.00
2017-11-14T20:19:53.291Z,89.91
2017-11-14T20:22:19.532Z,89.87
2017-11-14T20:24:45.777Z,89.86
2017-11-14T20:27:12.052Z,89.72
2017-11-14T20:29:38.289Z,89.76
2017-11-14T20:32:04.526Z,89.68
2017-11-14T20:34:30.825Z,89.50
2017-11-14T20:36:57.075Z,89.19
2017-11-14T20:39:23.330Z,89.14
2017-11-14T20:41:49.617Z,89.62
2017-11-14T20:44:15.873Z,89.90
2017-11-14T20:46:42.099Z,89.73
2017-11-14T20:49:08.376Z,90.08
2017-11-14T20:51:34.637Z,89.83
2017-11-14T20:54:00.883Z,89.59
2017-11-14T20:56:27.183Z,89.44
2017-11-14T20:58:53.420Z,90.15
2017-11-14T21:01:19.695Z,90.01
2017-11-14T21:03:46.000Z,89.80
2017-11-14T21:06:12.227Z,89.55
2017-11-14T21:08:38.464Z,89.75
2017-11-14T21:11:04.822Z,89.77
2017-11-14T21:13:31.072Z,90.06
2017-11-14T21:15:57.312Z,90.22
2017-11-14T21:18:23.608Z,90.77
2017-11-14T21:20:49.859Z,90.90
2017-11-14T21:23:16.098Z,90.68
2017-11-14T21:25:42.387Z,90.80
2017-11-14T21:28:08.631Z,90.78
2017-11-14T21:30:34.877Z,90.79
2017-11-14T21:33:01.156Z,90.72
2017-11-14T21:35:27.381Z,90.88
2017-11-14T21:37:53.618Z,90.87
2017-11-14T21:40:19.912Z,91.01
2017-11-14T21:42:46.164Z,90.69
2017-11-14T21:45:12.405Z,90.72
2017-11-14T21:47:38.668Z,90.51
2017-11-14T21:50:04.924Z,90.64
2017-11-14T21:52:31.201Z,90.88
2017-11-14T21:54:57.482Z,91.04
2017-11-14T21:57:23.751Z,91.32
2017-11-14T21:59:49.975Z,91.02
2017-11-14T22:02:16.270Z,91.34
2017-11-14T22:04:42.587Z,91.17
2017-11-14T22:07:08.843Z,91.18
2017-11-14T22:09:35.183Z,91.36
2017-11-14T22:12:01.439Z,91.48
2017-11-14T22:14:27.711Z,91.77
2017-11-14T22:16:54.016Z,91.68
2017-11-14T22:19:20.272Z,91.41
2017-11-14T22:21:46.499Z,91.74
2017-11-14T22:24:12.789Z,92.14
2017-11-14T22:26:39.057Z,91.93
2017-11-14T22:29:05.301Z,92.12
2017-11-14T22:31:31.629Z,92.18
2017-11-14T22:33:57.909Z,91.97
2017-11-14T22:36:24.153Z,91.00
2017-11-14T22:38:50.436Z,91.04
2017-11-14T22:41:16.668Z,90.67
2017-11-14T22:43:42.905Z,91.12
2017-11-14T22:46:09.219Z,91.53
2017-11-14T22:48:35.453Z,91.34
2017-11-14T22:51:01.700Z,91.24
2017-11-14T22:53:27.975Z,91.64
2017-11-14T22:55:54.225Z,92.13
2017-11-14T22:58:20.477Z,92.16
2017-11-14T23:00:46.751Z,91.87
2017-11-14T23:03:12.975Z,92.04
2017-11-14T23:05:39.221Z,91.76
2017-11-14T23:08:05.519Z,91.41
2017-11-14T23:10:31.774Z,91.50
2017-11-14T23:12:58.004Z,91.83
2017-11-14T23:15:24.284Z,91.64
2017-11-14T23:17:50.520Z,91.56
2017-11-14T23:20:16.754Z,91.80
2017-11-14T23:22:43.041Z,92.62
2017-11-14T23:25:09.296Z,92.83
2017-11-14T23:27:35.562Z,93.04
2017-11-14T23:30:01.857Z,92.64
2017-11-14T23:32:28.173Z,92.44
2017-11-14T23:34:54.413Z,92.49
2017-11-14T23:37:20.702Z,91.96
2017-11-14T23:39:46.941Z,91.66
2017-11-14T23:42:13.192Z,91.36
2017-11-14T23:44:39.632Z,91.50
2017-11-14T23:47:07.562Z,91.30
2017-11-14T23:49:33.822Z,90.86
2017-11-14T23:52:00.111Z,90.68
2017-11-14T23:54:26.364Z,90.52
2017-11-14T23:56:52.619Z,90.45
